Prosperity, Missouri
Current Conditions -  °F | °C
As of 1:23 AM on Friday 19 Dec 2014 (Local Time) from KJLN Reporting Station
Moderate Fog Moderate Fog  
Wind Chill: 36°   Ceiling: 300
Heat Index: 36°   Visibility: 0.5mi
Dew Point: 36°   Wind: 0mph
Humidity: 100%   Direction: NA
Pressure: 30.23"   Gusts: NA
Location:  37.1074°N, 94.5218°W
Report Text: KJLN 190723Z AUTO 00000KT 1/2SM FG VV003 02/02 A3023 RMK AO2 T00220022
Loading
Personal Weather Stations






























Interactive Weather Map New forecast layout! Learn more

10-Day Weather Forecast

Advertisements
Track Severe Weather on mobile